sensor_id;sensor_type;location;lat;lon;timestamp;pressure;altitude;pressure_sealevel;temperature;humidity
62592;BME280;48659;41.622;2.276;2023-01-04T00:02:27;101384.17;;;9.96;53.49
62592;BME280;48659;41.622;2.276;2023-01-04T00:04:54;101383.57;;;9.53;54.05
62592;BME280;48659;41.622;2.276;2023-01-04T00:07:22;101382.28;;;9.24;54.93
62592;BME280;48659;41.622;2.276;2023-01-04T00:09:49;101378.82;;;8.81;55.01
62592;BME280;48659;41.622;2.276;2023-01-04T00:12:16;101376.40;;;10.00;52.95
62592;BME280;48659;41.622;2.276;2023-01-04T00:14:46;101374.30;;;9.08;53.01
62592;BME280;48659;41.622;2.276;2023-01-04T00:17:14;101373.48;;;9.18;53.63
62592;BME280;48659;41.622;2.276;2023-01-04T00:19:41;101368.78;;;9.78;53.68
62592;BME280;48659;41.622;2.276;2023-01-04T00:22:17;101372.47;;;9.30;53.85
62592;BME280;48659;41.622;2.276;2023-01-04T00:24:44;101372.22;;;10.04;52.72
62592;BME280;48659;41.622;2.276;2023-01-04T00:27:11;101370.04;;;8.50;53.91
62592;BME280;48659;41.622;2.276;2023-01-04T00:29:39;101370.27;;;8.58;54.93
62592;BME280;48659;41.622;2.276;2023-01-04T00:32:08;101366.19;;;9.29;54.07
62592;BME280;48659;41.622;2.276;2023-01-04T00:34:35;101362.77;;;9.48;54.11
62592;BME280;48659;41.622;2.276;2023-01-04T00:37:02;101360.09;;;8.89;54.79
62592;BME280;48659;41.622;2.276;2023-01-04T00:39:29;101357.31;;;8.82;54.57
62592;BME280;48659;41.622;2.276;2023-01-04T00:41:56;101351.60;;;8.75;54.97
62592;BME280;48659;41.622;2.276;2023-01-04T00:44:23;101351.64;;;8.13;57.21
62592;BME280;48659;41.622;2.276;2023-01-04T00:46:52;101351.71;;;8.57;56.67
62592;BME280;48659;41.622;2.276;2023-01-04T00:49:19;101351.34;;;8.13;55.62
62592;BME280;48659;41.622;2.276;2023-01-04T00:51:47;101347.62;;;9.01;54.75
62592;BME280;48659;41.622;2.276;2023-01-04T00:54:14;101343.69;;;9.92;52.31
62592;BME280;48659;41.622;2.276;2023-01-04T00:56:43;101342.37;;;9.47;53.02
62592;BME280;48659;41.622;2.276;2023-01-04T00:59:16;101344.91;;;8.48;54.24
62592;BME280;48659;41.622;2.276;2023-01-04T01:01:45;101339.60;;;9.59;53.17
62592;BME280;48659;41.622;2.276;2023-01-04T01:04:19;101342.12;;;8.83;53.40
62592;BME280;48659;41.622;2.276;2023-01-04T01:06:47;101344.30;;;9.43;52.95
62592;BME280;48659;41.622;2.276;2023-01-04T01:09:18;101349.47;;;8.19;53.87
62592;BME280;48659;41.622;2.276;2023-01-04T01:11:46;101351.24;;;8.70;54.40
62592;BME280;48659;41.622;2.276;2023-01-04T01:14:16;101354.37;;;8.38;54.74
62592;BME280;48659;41.622;2.276;2023-01-04T01:16:44;101354.67;;;8.00;55.90
62592;BME280;48659;41.622;2.276;2023-01-04T01:19:18;101357.38;;;7.86;55.47
62592;BME280;48659;41.622;2.276;2023-01-04T01:21:45;101359.44;;;7.48;56.34
62592;BME280;48659;41.622;2.276;2023-01-04T01:24:18;101363.15;;;8.04;54.78
62592;BME280;48659;41.622;2.276;2023-01-04T01:26:46;101365.57;;;8.59;54.26
62592;BME280;48659;41.622;2.276;2023-01-04T01:29:13;101364.78;;;8.54;54.70
62592;BME280;48659;41.622;2.276;2023-01-04T01:31:41;101370.76;;;8.19;55.13
62592;BME280;48659;41.622;2.276;2023-01-04T01:34:10;101372.48;;;8.88;54.52
62592;BME280;48659;41.622;2.276;2023-01-04T01:36:37;101368.41;;;9.46;52.67
62592;BME280;48659;41.622;2.276;2023-01-04T01:39:05;101374.63;;;8.62;53.73
62592;BME280;48659;41.622;2.276;2023-01-04T01:41:33;101373.66;;;8.36;54.76
62592;BME280;48659;41.622;2.276;2023-01-04T01:44:04;101373.61;;;8.25;54.92
62592;BME280;48659;41.622;2.276;2023-01-04T01:46:35;101373.94;;;8.14;56.08
62592;BME280;48659;41.622;2.276;2023-01-04T01:49:10;101376.03;;;7.79;56.43
62592;BME280;48659;41.622;2.276;2023-01-04T01:51:41;101373.64;;;7.79;55.98
62592;BME280;48659;41.622;2.276;2023-01-04T01:54:19;101376.40;;;8.52;55.04
62592;BME280;48659;41.622;2.276;2023-01-04T01:56:49;101379.70;;;8.24;54.84
62592;BME280;48659;41.622;2.276;2023-01-04T01:59:21;101380.20;;;7.84;54.48
62592;BME280;48659;41.622;2.276;2023-01-04T02:01:50;101381.00;;;8.83;52.83
62592;BME280;48659;41.622;2.276;2023-01-04T02:04:28;101381.85;;;9.09;52.31
62592;BME280;48659;41.622;2.276;2023-01-04T02:06:58;101387.17;;;8.70;53.22
62592;BME280;48659;41.622;2.276;2023-01-04T02:09:26;101389.94;;;7.02;54.19
62592;BME280;48659;41.622;2.276;2023-01-04T02:11:56;101390.91;;;7.48;55.64
62592;BME280;48659;41.622;2.276;2023-01-04T02:14:24;101390.95;;;8.01;54.86
62592;BME280;48659;41.622;2.276;2023-01-04T02:17:01;101388.46;;;7.87;54.79
62592;BME280;48659;41.622;2.276;2023-01-04T02:19:47;101389.54;;;7.74;54.67
62592;BME280;48659;41.622;2.276;2023-01-04T02:22:41;101396.75;;;7.62;56.09
62592;BME280;48659;41.622;2.276;2023-01-04T02:27:39;101397.71;;;7.73;57.68
62592;BME280;48659;41.622;2.276;2023-01-04T02:30:37;101401.23;;;7.60;57.33
62592;BME280;48659;41.622;2.276;2023-01-04T02:33:18;101397.02;;;7.65;57.83
62592;BME280;48659;41.622;2.276;2023-01-04T02:35:56;101394.33;;;7.90;56.38
62592;BME280;48659;41.622;2.276;2023-01-04T02:38:28;101393.15;;;7.68;55.81
62592;BME280;48659;41.622;2.276;2023-01-04T02:41:04;101395.52;;;7.61;56.76
62592;BME280;48659;41.622;2.276;2023-01-04T02:43:39;101398.59;;;7.15;56.33
62592;BME280;48659;41.622;2.276;2023-01-04T02:46:22;101400.41;;;6.79;56.46
62592;BME280;48659;41.622;2.276;2023-01-04T02:48:53;101393.58;;;7.13;56.25
62592;BME280;48659;41.622;2.276;2023-01-04T02:51:30;101398.42;;;7.04;56.65
62592;BME280;48659;41.622;2.276;2023-01-04T02:54:01;101395.37;;;7.39;55.90
62592;BME280;48659;41.622;2.276;2023-01-04T02:56:45;101398.91;;;7.63;56.44
62592;BME280;48659;41.622;2.276;2023-01-04T02:59:29;101391.15;;;7.52;56.22
62592;BME280;48659;41.622;2.276;2023-01-04T03:02:06;101386.35;;;7.49;56.22
62592;BME280;48659;41.622;2.276;2023-01-04T03:04:48;101383.12;;;7.99;54.99
62592;BME280;48659;41.622;2.276;2023-01-04T03:07:32;101382.86;;;7.12;55.75
62592;BME280;48659;41.622;2.276;2023-01-04T03:10:06;101385.97;;;7.08;56.87
62592;BME280;48659;41.622;2.276;2023-01-04T03:12:40;101385.80;;;7.40;56.32
62592;BME280;48659;41.622;2.276;2023-01-04T03:15:13;101382.81;;;6.99;56.93
62592;BME280;48659;41.622;2.276;2023-01-04T03:17:46;101384.38;;;7.19;55.96
62592;BME280;48659;41.622;2.276;2023-01-04T03:20:20;101382.24;;;6.32;57.49
62592;BME280;48659;41.622;2.276;2023-01-04T03:22:53;101379.15;;;7.32;55.93
62592;BME280;48659;41.622;2.276;2023-01-04T03:25:26;101372.05;;;6.69;55.87
62592;BME280;48659;41.622;2.276;2023-01-04T03:27:57;101372.14;;;7.68;56.06
62592;BME280;48659;41.622;2.276;2023-01-04T03:30:28;101371.35;;;7.08;55.88
62592;BME280;48659;41.622;2.276;2023-01-04T03:33:02;101371.48;;;7.84;55.21
62592;BME280;48659;41.622;2.276;2023-01-04T03:35:38;101377.76;;;7.38;56.52
62592;BME280;48659;41.622;2.276;2023-01-04T03:38:10;101376.42;;;7.16;57.21
62592;BME280;48659;41.622;2.276;2023-01-04T03:40:44;101367.61;;;7.48;56.68
62592;BME280;48659;41.622;2.276;2023-01-04T03:43:21;101366.53;;;6.53;57.56
62592;BME280;48659;41.622;2.276;2023-01-04T03:45:53;101358.90;;;7.67;56.35
62592;BME280;48659;41.622;2.276;2023-01-04T03:48:26;101369.03;;;6.54;58.07
62592;BME280;48659;41.622;2.276;2023-01-04T03:51:03;101370.15;;;6.44;58.93
62592;BME280;48659;41.622;2.276;2023-01-04T03:53:35;101368.48;;;5.72;61.40
62592;BME280;48659;41.622;2.276;2023-01-04T03:56:06;101367.86;;;6.46;59.25
62592;BME280;48659;41.622;2.276;2023-01-04T03:58:35;101369.18;;;6.50;58.61
62592;BME280;48659;41.622;2.276;2023-01-04T04:01:03;101368.00;;;6.94;58.12
62592;BME280;48659;41.622;2.276;2023-01-04T04:03:31;101369.71;;;7.26;57.13
62592;BME280;48659;41.622;2.276;2023-01-04T04:05:58;101368.53;;;7.23;57.77
62592;BME280;48659;41.622;2.276;2023-01-04T04:08:27;101373.94;;;6.41;57.88
62592;BME280;48659;41.622;2.276;2023-01-04T04:10:56;101377.11;;;6.26;59.55
62592;BME280;48659;41.622;2.276;2023-01-04T04:13:24;101377.41;;;6.14;59.67
62592;BME280;48659;41.622;2.276;2023-01-04T04:15:52;101375.13;;;7.11;58.44
62592;BME280;48659;41.622;2.276;2023-01-04T04:18:20;101373.61;;;6.54;58.28
62592;BME280;48659;41.622;2.276;2023-01-04T04:20:47;101378.61;;;6.29;59.18
62592;BME280;48659;41.622;2.276;2023-01-04T04:23:22;101373.73;;;7.06;58.11
62592;BME280;48659;41.622;2.276;2023-01-04T04:25:50;101374.30;;;6.19;60.10
62592;BME280;48659;41.622;2.276;2023-01-04T04:28:18;101372.58;;;6.71;58.03
62592;BME280;48659;41.622;2.276;2023-01-04T04:30:48;101371.90;;;7.16;57.73
62592;BME280;48659;41.622;2.276;2023-01-04T04:33:15;101373.40;;;6.96;57.83
62592;BME280;48659;41.622;2.276;2023-01-04T04:35:43;101380.20;;;6.96;58.58
62592;BME280;48659;41.622;2.276;2023-01-04T04:38:18;101379.37;;;6.13;58.33
62592;BME280;48659;41.622;2.276;2023-01-04T04:40:46;101383.74;;;6.87;58.23
62592;BME280;48659;41.622;2.276;2023-01-04T04:43:18;101383.29;;;6.34;57.82
62592;BME280;48659;41.622;2.276;2023-01-04T04:45:45;101383.56;;;7.01;57.18
62592;BME280;48659;41.622;2.276;2023-01-04T04:48:12;101383.11;;;6.79;57.15
62592;BME280;48659;41.622;2.276;2023-01-04T04:50:40;101381.63;;;7.09;57.27
62592;BME280;48659;41.622;2.276;2023-01-04T04:53:07;101382.84;;;6.37;57.91
62592;BME280;48659;41.622;2.276;2023-01-04T04:55:34;101380.75;;;6.14;57.42
62592;BME280;48659;41.622;2.276;2023-01-04T04:58:02;101379.14;;;6.98;57.27
62592;BME280;48659;41.622;2.276;2023-01-04T05:00:32;101384.40;;;6.48;57.54
62592;BME280;48659;41.622;2.276;2023-01-04T05:03:00;101389.33;;;7.13;56.59
62592;BME280;48659;41.622;2.276;2023-01-04T05:05:27;101387.77;;;6.87;56.38
62592;BME280;48659;41.622;2.276;2023-01-04T05:07:55;101388.64;;;7.20;57.00
62592;BME280;48659;41.622;2.276;2023-01-04T05:10:22;101388.23;;;6.85;56.50
62592;BME280;48659;41.622;2.276;2023-01-04T05:12:55;101391.60;;;7.05;57.18
62592;BME280;48659;41.622;2.276;2023-01-04T05:15:22;101394.35;;;6.91;57.09
62592;BME280;48659;41.622;2.276;2023-01-04T05:17:50;101388.56;;;6.92;56.43
62592;BME280;48659;41.622;2.276;2023-01-04T05:20:17;101389.44;;;6.98;57.04
62592;BME280;48659;41.622;2.276;2023-01-04T05:22:45;101394.04;;;6.47;58.02
62592;BME280;48659;41.622;2.276;2023-01-04T05:25:13;101396.99;;;6.55;57.49
62592;BME280;48659;41.622;2.276;2023-01-04T05:27:42;101395.14;;;7.52;56.69
62592;BME280;48659;41.622;2.276;2023-01-04T05:30:13;101397.40;;;7.09;56.43
62592;BME280;48659;41.622;2.276;2023-01-04T05:32:40;101399.45;;;7.14;56.56
62592;BME280;48659;41.622;2.276;2023-01-04T05:35:08;101401.01;;;7.08;56.34
62592;BME280;48659;41.622;2.276;2023-01-04T05:37:36;101402.10;;;6.96;56.26
62592;BME280;48659;41.622;2.276;2023-01-04T05:40:04;101409.22;;;6.79;56.25
62592;BME280;48659;41.622;2.276;2023-01-04T05:42:32;101412.12;;;6.36;57.38
62592;BME280;48659;41.622;2.276;2023-01-04T05:44:59;101410.31;;;6.58;58.07
62592;BME280;48659;41.622;2.276;2023-01-04T05:47:27;101411.76;;;6.06;58.38
62592;BME280;48659;41.622;2.276;2023-01-04T05:49:55;101414.91;;;6.59;57.38
62592;BME280;48659;41.622;2.276;2023-01-04T05:52:22;101415.01;;;6.55;57.46
62592;BME280;48659;41.622;2.276;2023-01-04T05:54:50;101416.83;;;6.98;56.79
62592;BME280;48659;41.622;2.276;2023-01-04T05:57:18;101416.75;;;7.19;56.58
62592;BME280;48659;41.622;2.276;2023-01-04T05:59:45;101421.15;;;7.45;55.29
62592;BME280;48659;41.622;2.276;2023-01-04T06:02:19;101423.84;;;6.68;55.31
62592;BME280;48659;41.622;2.276;2023-01-04T06:04:47;101424.09;;;6.61;56.28
62592;BME280;48659;41.622;2.276;2023-01-04T06:07:15;101425.38;;;6.41;56.37
62592;BME280;48659;41.622;2.276;2023-01-04T06:09:43;101424.08;;;6.42;57.85
62592;BME280;48659;41.622;2.276;2023-01-04T06:12:18;101430.42;;;5.71;58.64
62592;BME280;48659;41.622;2.276;2023-01-04T06:14:45;101432.75;;;6.33;58.09
62592;BME280;48659;41.622;2.276;2023-01-04T06:17:13;101437.15;;;5.50;58.91
62592;BME280;48659;41.622;2.276;2023-01-04T06:19:40;101437.66;;;5.92;59.04
62592;BME280;48659;41.622;2.276;2023-01-04T06:22:08;101436.66;;;6.15;57.93
62592;BME280;48659;41.622;2.276;2023-01-04T06:24:36;101438.05;;;6.46;57.26
62592;BME280;48659;41.622;2.276;2023-01-04T06:27:03;101442.94;;;6.37;57.72
62592;BME280;48659;41.622;2.276;2023-01-04T06:29:31;101443.90;;;6.97;56.52
62592;BME280;48659;41.622;2.276;2023-01-04T06:31:59;101444.09;;;6.59;57.81
62592;BME280;48659;41.622;2.276;2023-01-04T06:34:26;101446.69;;;6.78;57.27
62592;BME280;48659;41.622;2.276;2023-01-04T06:36:54;101448.57;;;6.24;57.95
62592;BME280;48659;41.622;2.276;2023-01-04T06:39:21;101451.08;;;6.24;58.20
62592;BME280;48659;41.622;2.276;2023-01-04T06:41:49;101451.29;;;6.47;58.84
62592;BME280;48659;41.622;2.276;2023-01-04T06:44:18;101452.74;;;5.47;59.23
62592;BME280;48659;41.622;2.276;2023-01-04T06:46:47;101450.69;;;6.30;58.83
62592;BME280;48659;41.622;2.276;2023-01-04T06:49:14;101454.72;;;5.91;59.03
62592;BME280;48659;41.622;2.276;2023-01-04T06:51:42;101451.40;;;6.13;58.44
62592;BME280;48659;41.622;2.276;2023-01-04T06:54:10;101457.02;;;6.17;59.84
62592;BME280;48659;41.622;2.276;2023-01-04T06:56:38;101453.14;;;6.75;58.92
62592;BME280;48659;41.622;2.276;2023-01-04T06:59:06;101453.71;;;6.27;58.52
62592;BME280;48659;41.622;2.276;2023-01-04T07:01:34;101452.28;;;6.32;57.97
62592;BME280;48659;41.622;2.276;2023-01-04T07:04:06;101457.24;;;7.19;57.04
62592;BME280;48659;41.622;2.276;2023-01-04T07:06:33;101457.21;;;6.85;56.99
62592;BME280;48659;41.622;2.276;2023-01-04T07:09:01;101456.62;;;6.74;57.53
62592;BME280;48659;41.622;2.276;2023-01-04T07:11:29;101456.53;;;6.89;57.24
62592;BME280;48659;41.622;2.276;2023-01-04T07:13:56;101458.47;;;6.33;57.25
62592;BME280;48659;41.622;2.276;2023-01-04T07:16:23;101461.09;;;6.73;56.56
62592;BME280;48659;41.622;2.276;2023-01-04T07:18:50;101464.78;;;6.65;56.99
62592;BME280;48659;41.622;2.276;2023-01-04T07:21:18;101470.29;;;6.13;57.73
62592;BME280;48659;41.622;2.276;2023-01-04T07:23:45;101478.01;;;5.14;59.58
62592;BME280;48659;41.622;2.276;2023-01-04T07:26:13;101482.36;;;3.21;65.83
62592;BME280;48659;41.622;2.276;2023-01-04T07:28:41;101484.04;;;5.72;60.61
62592;BME280;48659;41.622;2.276;2023-01-04T07:31:22;101480.86;;;5.46;61.93
62592;BME280;48659;41.622;2.276;2023-01-04T07:33:50;101481.89;;;6.46;58.34
62592;BME280;48659;41.622;2.276;2023-01-04T07:36:17;101486.24;;;6.46;57.81
62592;BME280;48659;41.622;2.276;2023-01-04T07:38:45;101486.59;;;6.14;58.11
62592;BME280;48659;41.622;2.276;2023-01-04T07:41:12;101489.66;;;6.55;57.09
62592;BME280;48659;41.622;2.276;2023-01-04T07:43:40;101489.77;;;6.47;59.50
62592;BME280;48659;41.622;2.276;2023-01-04T07:46:07;101485.93;;;6.64;59.47
62592;BME280;48659;41.622;2.276;2023-01-04T07:48:34;101490.77;;;6.49;59.46
62592;BME280;48659;41.622;2.276;2023-01-04T07:51:02;101499.78;;;6.92;58.40
62592;BME280;48659;41.622;2.276;2023-01-04T07:53:31;101501.89;;;6.75;58.47
62592;BME280;48659;41.622;2.276;2023-01-04T07:55:59;101508.21;;;6.88;57.58
62592;BME280;48659;41.622;2.276;2023-01-04T07:58:31;101513.61;;;7.58;57.72
62592;BME280;48659;41.622;2.276;2023-01-04T08:01:05;101517.02;;;7.68;55.80
62592;BME280;48659;41.622;2.276;2023-01-04T08:03:32;101518.46;;;7.28;56.72
62592;BME280;48659;41.622;2.276;2023-01-04T08:06:02;101521.24;;;7.38;56.16
62592;BME280;48659;41.622;2.276;2023-01-04T08:08:30;101519.84;;;6.81;57.27
62592;BME280;48659;41.622;2.276;2023-01-04T08:11:00;101524.37;;;7.02;57.16
62592;BME280;48659;41.622;2.276;2023-01-04T08:13:28;101527.47;;;7.08;57.10
62592;BME280;48659;41.622;2.276;2023-01-04T08:15:56;101531.51;;;7.50;56.74
62592;BME280;48659;41.622;2.276;2023-01-04T08:18:23;101531.79;;;7.37;56.66
62592;BME280;48659;41.622;2.276;2023-01-04T08:20:59;101533.91;;;7.71;57.56
62592;BME280;48659;41.622;2.276;2023-01-04T08:23:26;101538.35;;;7.70;57.26
62592;BME280;48659;41.622;2.276;2023-01-04T08:25:53;101536.89;;;7.87;56.96
62592;BME280;48659;41.622;2.276;2023-01-04T08:28:21;101538.28;;;7.86;56.26
62592;BME280;48659;41.622;2.276;2023-01-04T08:30:48;101543.50;;;7.98;56.08
62592;BME280;48659;41.622;2.276;2023-01-04T08:33:17;101540.32;;;8.35;55.56
62592;BME280;48659;41.622;2.276;2023-01-04T08:35:44;101540.00;;;9.00;54.56
62592;BME280;48659;41.622;2.276;2023-01-04T08:38:12;101540.69;;;8.76;55.47
62592;BME280;48659;41.622;2.276;2023-01-04T08:40:40;101545.80;;;8.91;55.19
62592;BME280;48659;41.622;2.276;2023-01-04T08:43:07;101545.79;;;9.46;53.95
62592;BME280;48659;41.622;2.276;2023-01-04T08:45:35;101548.74;;;9.46;53.07
62592;BME280;48659;41.622;2.276;2023-01-04T08:48:03;101550.67;;;9.39;53.46
62592;BME280;48659;41.622;2.276;2023-01-04T08:50:30;101552.31;;;9.66;53.54
62592;BME280;48659;41.622;2.276;2023-01-04T08:52:58;101554.00;;;9.60;54.26
62592;BME280;48659;41.622;2.276;2023-01-04T08:55:25;101556.31;;;9.80;53.55
62592;BME280;48659;41.622;2.276;2023-01-04T08:57:53;101558.89;;;10.03;53.12
62592;BME280;48659;41.622;2.276;2023-01-04T09:00:20;101558.13;;;9.85;53.39
62592;BME280;48659;41.622;2.276;2023-01-04T09:02:48;101558.73;;;10.06;53.31
62592;BME280;48659;41.622;2.276;2023-01-04T09:05:15;101559.60;;;9.70;53.96
62592;BME280;48659;41.622;2.276;2023-01-04T09:07:43;101561.17;;;10.17;53.53
62592;BME280;48659;41.622;2.276;2023-01-04T09:10:20;101563.93;;;9.65;53.57
62592;BME280;48659;41.622;2.276;2023-01-04T09:12:47;101569.06;;;10.15;53.47
62592;BME280;48659;41.622;2.276;2023-01-04T09:15:14;101569.17;;;9.59;53.58
62592;BME280;48659;41.622;2.276;2023-01-04T09:17:43;101567.64;;;9.87;53.17
62592;BME280;48659;41.622;2.276;2023-01-04T09:20:11;101568.68;;;10.62;52.47
62592;BME280;48659;41.622;2.276;2023-01-04T09:22:39;101574.83;;;10.73;52.52
62592;BME280;48659;41.622;2.276;2023-01-04T09:25:07;101574.48;;;10.76;51.87
62592;BME280;48659;41.622;2.276;2023-01-04T09:27:34;101574.79;;;10.50;52.06
62592;BME280;48659;41.622;2.276;2023-01-04T09:30:01;101571.86;;;10.64;52.25
62592;BME280;48659;41.622;2.276;2023-01-04T09:32:29;101573.22;;;10.74;51.37
62592;BME280;48659;41.622;2.276;2023-01-04T09:34:56;101575.44;;;10.61;52.12
62592;BME280;48659;41.622;2.276;2023-01-04T09:37:23;101572.25;;;10.43;51.60
62592;BME280;48659;41.622;2.276;2023-01-04T09:39:51;101575.72;;;11.38;50.97
62592;BME280;48659;41.622;2.276;2023-01-04T09:42:24;101573.44;;;11.22;51.13
62592;BME280;48659;41.622;2.276;2023-01-04T09:44:55;101574.31;;;11.73;50.92
62592;BME280;48659;41.622;2.276;2023-01-04T09:47:33;101577.68;;;11.50;51.06
62592;BME280;48659;41.622;2.276;2023-01-04T09:50:05;101576.44;;;11.19;51.04
62592;BME280;48659;41.622;2.276;2023-01-04T09:52:44;101579.26;;;11.14;52.02
62592;BME280;48659;41.622;2.276;2023-01-04T09:55:17;101574.95;;;11.35;50.48
62592;BME280;48659;41.622;2.276;2023-01-04T09:57:50;101578.01;;;11.86;49.62
62592;BME280;48659;41.622;2.276;2023-01-04T10:00:23;101576.32;;;11.85;49.84
62592;BME280;48659;41.622;2.276;2023-01-04T10:02:59;101576.48;;;11.68;49.70
62592;BME280;48659;41.622;2.276;2023-01-04T10:05:31;101578.05;;;11.64;50.81
62592;BME280;48659;41.622;2.276;2023-01-04T10:08:00;101579.22;;;12.22;49.49
62592;BME280;48659;41.622;2.276;2023-01-04T10:10:41;101578.87;;;11.93;50.27
62592;BME280;48659;41.622;2.276;2023-01-04T10:13:21;101574.30;;;12.60;50.32
62592;BME280;48659;41.622;2.276;2023-01-04T10:15:56;101568.79;;;12.69;49.37
62592;BME280;48659;41.622;2.276;2023-01-04T10:18:30;101565.25;;;12.41;48.91
62592;BME280;48659;41.622;2.276;2023-01-04T10:21:13;101565.62;;;12.49;48.67
62592;BME280;48659;41.622;2.276;2023-01-04T10:23:56;101564.70;;;12.69;48.47
62592;BME280;48659;41.622;2.276;2023-01-04T10:26:29;101565.35;;;11.67;51.05
62592;BME280;48659;41.622;2.276;2023-01-04T10:29:15;101564.04;;;12.72;49.20
62592;BME280;48659;41.622;2.276;2023-01-04T10:31:46;101564.25;;;12.84;48.91
62592;BME280;48659;41.622;2.276;2023-01-04T10:34:22;101561.68;;;12.34;48.23
62592;BME280;48659;41.622;2.276;2023-01-04T10:36:54;101553.88;;;12.71;47.74
62592;BME280;48659;41.622;2.276;2023-01-04T10:39:25;101553.61;;;12.94;47.64
62592;BME280;48659;41.622;2.276;2023-01-04T10:41:56;101547.82;;;13.23;46.83
62592;BME280;48659;41.622;2.276;2023-01-04T10:44:43;101546.74;;;13.18;46.82
62592;BME280;48659;41.622;2.276;2023-01-04T10:47:21;101542.33;;;13.03;47.15
62592;BME280;48659;41.622;2.276;2023-01-04T10:49:52;101535.09;;;13.27;46.69
62592;BME280;48659;41.622;2.276;2023-01-04T10:52:24;101531.42;;;13.72;45.80
62592;BME280;48659;41.622;2.276;2023-01-04T10:54:58;101529.32;;;12.86;48.06
62592;BME280;48659;41.622;2.276;2023-01-04T10:57:32;101526.57;;;13.28;46.66
62592;BME280;48659;41.622;2.276;2023-01-04T11:00:06;101529.53;;;12.97;47.10
62592;BME280;48659;41.622;2.276;2023-01-04T11:02:55;101523.95;;;13.38;46.58
62592;BME280;48659;41.622;2.276;2023-01-04T11:05:28;101523.35;;;12.62;48.35
62592;BME280;48659;41.622;2.276;2023-01-04T11:07:59;101515.36;;;13.56;48.05
62592;BME280;48659;41.622;2.276;2023-01-04T11:10:34;101515.96;;;13.47;46.60
62592;BME280;48659;41.622;2.276;2023-01-04T11:13:03;101513.45;;;13.19;47.46
62592;BME280;48659;41.622;2.276;2023-01-04T11:15:31;101512.47;;;13.39;47.53
62592;BME280;48659;41.622;2.276;2023-01-04T11:18:01;101513.18;;;13.91;46.70
62592;BME280;48659;41.622;2.276;2023-01-04T11:20:30;101511.46;;;13.85;45.68
62592;BME280;48659;41.622;2.276;2023-01-04T11:23:00;101505.48;;;13.60;46.15
62592;BME280;48659;41.622;2.276;2023-01-04T11:25:36;101508.84;;;13.95;45.78
62592;BME280;48659;41.622;2.276;2023-01-04T11:28:12;101501.09;;;14.17;45.57
62592;BME280;48659;41.622;2.276;2023-01-04T11:30:53;101503.16;;;14.13;45.25
62592;BME280;48659;41.622;2.276;2023-01-04T11:33:22;101496.32;;;14.22;44.71
62592;BME280;48659;41.622;2.276;2023-01-04T11:35:51;101494.65;;;14.20;44.94
62592;BME280;48659;41.622;2.276;2023-01-04T11:38:21;101490.60;;;13.90;45.63
62592;BME280;48659;41.622;2.276;2023-01-04T11:41:05;101483.59;;;14.85;45.14
62592;BME280;48659;41.622;2.276;2023-01-04T11:43:34;101481.80;;;14.44;44.86
62592;BME280;48659;41.622;2.276;2023-01-04T11:46:04;101481.69;;;14.07;46.16
62592;BME280;48659;41.622;2.276;2023-01-04T11:48:35;101474.82;;;14.48;45.50
62592;BME280;48659;41.622;2.276;2023-01-04T11:51:05;101470.85;;;15.13;44.24
62592;BME280;48659;41.622;2.276;2023-01-04T11:53:35;101472.51;;;14.08;45.12
62592;BME280;48659;41.622;2.276;2023-01-04T11:56:15;101466.55;;;15.14;43.56
62592;BME280;48659;41.622;2.276;2023-01-04T11:58:44;101464.44;;;15.29;43.18
62592;BME280;48659;41.622;2.276;2023-01-04T12:01:26;101459.12;;;15.38;42.89
62592;BME280;48659;41.622;2.276;2023-01-04T12:03:54;101454.98;;;15.59;43.06
62592;BME280;48659;41.622;2.276;2023-01-04T12:06:27;101451.95;;;14.98;42.95
62592;BME280;48659;41.622;2.276;2023-01-04T12:08:57;101445.74;;;14.11;45.18
62592;BME280;48659;41.622;2.276;2023-01-04T12:11:28;101446.23;;;13.36;46.32
62592;BME280;48659;41.622;2.276;2023-01-04T12:13:57;101441.89;;;12.58;47.69
62592;BME280;48659;41.622;2.276;2023-01-04T12:16:40;101436.94;;;13.32;46.94
62592;BME280;48659;41.622;2.276;2023-01-04T12:19:13;101433.05;;;15.04;43.91
62592;BME280;48659;41.622;2.276;2023-01-04T12:21:43;101429.77;;;13.63;46.07
62592;BME280;48659;41.622;2.276;2023-01-04T12:24:17;101426.61;;;14.90;43.40
62592;BME280;48659;41.622;2.276;2023-01-04T12:26:47;101423.10;;;15.33;42.97
62592;BME280;48659;41.622;2.276;2023-01-04T12:29:40;101419.70;;;15.23;42.74
62592;BME280;48659;41.622;2.276;2023-01-04T12:32:43;101411.11;;;15.71;42.30
62592;BME280;48659;41.622;2.276;2023-01-04T12:36:17;101404.24;;;16.01;41.40
62592;BME280;48659;41.622;2.276;2023-01-04T12:39:04;101390.62;;;16.39;40.67
62592;BME280;48659;41.622;2.276;2023-01-04T12:42:15;101394.47;;;15.29;41.66
62592;BME280;48659;41.622;2.276;2023-01-04T12:45:48;101395.53;;;15.03;42.45
62592;BME280;48659;41.622;2.276;2023-01-04T12:48:58;101383.41;;;16.24;39.76
62592;BME280;48659;41.622;2.276;2023-01-04T12:51:26;101378.33;;;16.60;38.60
62592;BME280;48659;41.622;2.276;2023-01-04T12:53:56;101375.21;;;16.57;38.49
62592;BME280;48659;41.622;2.276;2023-01-04T12:57:20;101374.72;;;16.14;39.08
62592;BME280;48659;41.622;2.276;2023-01-04T12:59:54;101366.88;;;16.29;38.09
62592;BME280;48659;41.622;2.276;2023-01-04T13:02:24;101362.98;;;15.69;39.85
62592;BME280;48659;41.622;2.276;2023-01-04T13:04:53;101358.70;;;16.37;38.46
62592;BME280;48659;41.622;2.276;2023-01-04T13:07:24;101357.50;;;16.00;38.58
62592;BME280;48659;41.622;2.276;2023-01-04T13:09:56;101352.38;;;16.15;38.60
62592;BME280;48659;41.622;2.276;2023-01-04T13:13:06;101349.69;;;16.07;38.30
62592;BME280;48659;41.622;2.276;2023-01-04T13:15:47;101351.04;;;14.83;40.33
62592;BME280;48659;41.622;2.276;2023-01-04T13:18:35;101343.45;;;16.20;38.11
62592;BME280;48659;41.622;2.276;2023-01-04T13:21:10;101335.94;;;16.72;39.70
62592;BME280;48659;41.622;2.276;2023-01-04T13:23:39;101334.37;;;16.70;36.57
62592;BME280;48659;41.622;2.276;2023-01-04T13:26:28;101330.07;;;15.17;37.91